sensor_id;sensor_type;location;lat;lon;timestamp;pressure;altitude;pressure_sealevel;temperature
11926;BMP180;6022;48.768;18.608;2023-03-01T00:01:56;99455.19;;;-0.31
11926;BMP180;6022;48.768;18.608;2023-03-01T00:04:25;99462.66;;;-0.32
11926;BMP180;6022;48.768;18.608;2023-03-01T00:06:52;99465.97;;;-0.27
11926;BMP180;6022;48.768;18.608;2023-03-01T00:09:19;99464.31;;;-0.25
11926;BMP180;6022;48.768;18.608;2023-03-01T00:11:48;99465.16;;;-0.26
11926;BMP180;6022;48.768;18.608;2023-03-01T00:14:36;99467.59;;;-0.17
11926;BMP180;6022;48.768;18.608;2023-03-01T00:17:04;99455.91;;;-0.09
11926;BMP180;6022;48.768;18.608;2023-03-01T00:19:31;99457.53;;;-0.01
11926;BMP180;6022;48.768;18.608;2023-03-01T00:22:01;99450.00;;;0.09
11926;BMP180;6022;48.768;18.608;2023-03-01T00:24:28;99442.50;;;0.12
11926;BMP180;6022;48.768;18.608;2023-03-01T00:27:02;99447.44;;;0.21
11926;BMP180;6022;48.768;18.608;2023-03-01T00:29:32;99453.19;;;0.28
11926;BMP180;6022;48.768;18.608;2023-03-01T00:31:59;99443.19;;;0.31
11926;BMP180;6022;48.768;18.608;2023-03-01T00:34:30;99452.38;;;0.30
11926;BMP180;6022;48.768;18.608;2023-03-01T00:37:00;99442.38;;;0.30
11926;BMP180;6022;48.768;18.608;2023-03-01T00:39:36;99434.03;;;0.31
11926;BMP180;6022;48.768;18.608;2023-03-01T00:42:04;99439.00;;;0.36
11926;BMP180;6022;48.768;18.608;2023-03-01T00:44:36;99435.66;;;0.37
11926;BMP180;6022;48.768;18.608;2023-03-01T00:47:06;99423.19;;;0.35
11926;BMP180;6022;48.768;18.608;2023-03-01T00:49:34;99424.88;;;0.36
11926;BMP180;6022;48.768;18.608;2023-03-01T00:52:10;99414.84;;;0.39
11926;BMP180;6022;48.768;18.608;2023-03-01T00:54:38;99408.16;;;0.41
11926;BMP180;6022;48.768;18.608;2023-03-01T00:57:05;99404.84;;;0.42
11926;BMP180;6022;48.768;18.608;2023-03-01T00:59:49;99405.69;;;0.41
11926;BMP180;6022;48.768;18.608;2023-03-01T01:02:24;99402.41;;;0.33
11926;BMP180;6022;48.768;18.608;2023-03-01T01:04:51;99403.25;;;0.34
11926;BMP180;6022;48.768;18.608;2023-03-01T01:07:19;99402.38;;;0.39
11926;BMP180;6022;48.768;18.608;2023-03-01T01:09:49;99399.06;;;0.38
11926;BMP180;6022;48.768;18.608;2023-03-01T01:12:17;99400.69;;;0.41
11926;BMP180;6022;48.768;18.608;2023-03-01T01:14:53;99399.00;;;0.43
11926;BMP180;6022;48.768;18.608;2023-03-01T01:17:21;99394.81;;;0.45
11926;BMP180;6022;48.768;18.608;2023-03-01T01:19:51;99387.31;;;0.48
11926;BMP180;6022;48.768;18.608;2023-03-01T01:22:21;99384.81;;;0.51
11926;BMP180;6022;48.768;18.608;2023-03-01T01:24:50;99384.75;;;0.55
11926;BMP180;6022;48.768;18.608;2023-03-01T01:27:18;99381.47;;;0.50
11926;BMP180;6022;48.768;18.608;2023-03-01T01:29:45;99373.16;;;0.54
11926;BMP180;6022;48.768;18.608;2023-03-01T01:32:13;99377.25;;;0.58
11926;BMP180;6022;48.768;18.608;2023-03-01T01:34:44;99368.09;;;0.57
11926;BMP180;6022;48.768;18.608;2023-03-01T01:37:13;99371.41;;;0.62
11926;BMP180;6022;48.768;18.608;2023-03-01T01:39:40;99364.75;;;0.60
11926;BMP180;6022;48.768;18.608;2023-03-01T01:42:17;99364.78;;;0.57
11926;BMP180;6022;48.768;18.608;2023-03-01T01:47:38;99359.84;;;0.51
11926;BMP180;6022;48.768;18.608;2023-03-01T01:50:10;99366.47;;;0.55
11926;BMP180;6022;48.768;18.608;2023-03-01T01:52:43;99362.31;;;0.55
11926;BMP180;6022;48.768;18.608;2023-03-01T01:55:22;99343.06;;;0.63
11926;BMP180;6022;48.768;18.608;2023-03-01T01:57:56;99341.38;;;0.68
11926;BMP180;6022;48.768;18.608;2023-03-01T02:00:28;99334.69;;;0.70
11926;BMP180;6022;48.768;18.608;2023-03-01T02:03:03;99343.81;;;0.73
11926;BMP180;6022;48.768;18.608;2023-03-01T02:08:02;99347.88;;;0.82
11926;BMP180;6022;48.768;18.608;2023-03-01T02:10:33;99351.22;;;0.81
11926;BMP180;6022;48.768;18.608;2023-03-01T02:13:03;99339.63;;;0.76
11926;BMP180;6022;48.768;18.608;2023-03-01T02:15:36;99359.53;;;0.80
11926;BMP180;6022;48.768;18.608;2023-03-01T02:18:08;99363.72;;;0.78
11926;BMP180;6022;48.768;18.608;2023-03-01T02:24:24;99362.03;;;0.80
11926;BMP180;6022;48.768;18.608;2023-03-01T02:26:56;99362.03;;;0.80
11926;BMP180;6022;48.768;18.608;2023-03-01T02:29:29;99357.03;;;0.80
11926;BMP180;6022;48.768;18.608;2023-03-01T02:31:59;99359.50;;;0.83
11926;BMP180;6022;48.768;18.608;2023-03-01T02:34:32;99357.03;;;0.80
11926;BMP180;6022;48.768;18.608;2023-03-01T02:37:14;99356.22;;;0.81
11926;BMP180;6022;48.768;18.608;2023-03-01T02:39:56;99356.19;;;0.83
11926;BMP180;6022;48.768;18.608;2023-03-01T02:42:36;99356.22;;;0.81
11926;BMP180;6022;48.768;18.608;2023-03-01T02:45:08;99363.69;;;0.84
11926;BMP180;6022;48.768;18.608;2023-03-01T02:47:38;99356.94;;;0.89
11926;BMP180;6022;48.768;18.608;2023-03-01T02:53:15;99346.97;;;0.89
11926;BMP180;6022;48.768;18.608;2023-03-01T02:55:43;99352.69;;;0.97
11926;BMP180;6022;48.768;18.608;2023-03-01T02:58:11;99343.56;;;0.95
11926;BMP180;6022;48.768;18.608;2023-03-01T03:00:42;99350.19;;;0.97
11926;BMP180;6022;48.768;18.608;2023-03-01T03:03:15;99349.34;;;1.00
11926;BMP180;6022;48.768;18.608;2023-03-01T03:05:43;99344.34;;;1.00
11926;BMP180;6022;48.768;18.608;2023-03-01T03:08:14;99349.31;;;1.03
11926;BMP180;6022;48.768;18.608;2023-03-01T03:10:43;99347.66;;;1.02
11926;BMP180;6022;48.768;18.608;2023-03-01T03:13:14;99350.16;;;1.00
11926;BMP180;6022;48.768;18.608;2023-03-01T03:15:43;99354.28;;;1.03
11926;BMP180;6022;48.768;18.608;2023-03-01T03:18:18;99355.97;;;1.02
11926;BMP180;6022;48.768;18.608;2023-03-01T03:20:46;99351.88;;;0.98
11926;BMP180;6022;48.768;18.608;2023-03-01T03:23:13;99351.88;;;0.95
11926;BMP180;6022;48.768;18.608;2023-03-01T03:25:44;99351.03;;;0.98
11926;BMP180;6022;48.768;18.608;2023-03-01T03:28:25;99348.50;;;0.99
11926;BMP180;6022;48.768;18.608;2023-03-01T03:30:53;99342.75;;;0.94
11926;BMP180;6022;48.768;18.608;2023-03-01T03:33:20;99350.25;;;0.94
11926;BMP180;6022;48.768;18.608;2023-03-01T03:35:48;99339.44;;;0.94
11926;BMP180;6022;48.768;18.608;2023-03-01T03:38:19;99345.25;;;0.94
11926;BMP180;6022;48.768;18.608;2023-03-01T03:41:02;99342.03;;;0.85
11926;BMP180;6022;48.768;18.608;2023-03-01T03:43:33;99345.25;;;0.93
11926;BMP180;6022;48.768;18.608;2023-03-01T03:46:02;99341.94;;;0.94
11926;BMP180;6022;48.768;18.608;2023-03-01T03:48:42;99344.38;;;0.98
11926;BMP180;6022;48.768;18.608;2023-03-01T03:51:16;99347.66;;;1.02
11926;BMP180;6022;48.768;18.608;2023-03-01T03:53:44;99354.28;;;1.03
11926;BMP180;6022;48.768;18.608;2023-03-01T03:56:13;99341.84;;;1.01
11926;BMP180;6022;48.768;18.608;2023-03-01T03:58:41;99356.72;;;1.10
11926;BMP180;6022;48.768;18.608;2023-03-01T04:01:08;99343.38;;;1.11
11926;BMP180;6022;48.768;18.608;2023-03-01T04:03:36;99335.16;;;1.03
11926;BMP180;6022;48.768;18.608;2023-03-01T04:06:03;99328.50;;;1.04
11926;BMP180;6022;48.768;18.608;2023-03-01T04:08:32;99339.28;;;1.06
11926;BMP180;6022;48.768;18.608;2023-03-01T04:11:05;99346.75;;;1.09
11926;BMP180;6022;48.768;18.608;2023-03-01T04:13:54;99336.69;;;1.13
11926;BMP180;6022;48.768;18.608;2023-03-01T04:16:22;99340.88;;;1.13
11926;BMP180;6022;48.768;18.608;2023-03-01T04:18:50;99336.66;;;1.16
11926;BMP180;6022;48.768;18.608;2023-03-01T04:21:19;99336.63;;;1.19
11926;BMP180;6022;48.768;18.608;2023-03-01T04:23:48;99331.69;;;1.14
11926;BMP180;6022;48.768;18.608;2023-03-01T04:26:15;99337.50;;;1.16
11926;BMP180;6022;48.768;18.608;2023-03-01T04:28:43;99332.50;;;1.16
11926;BMP180;6022;48.768;18.608;2023-03-01T04:31:20;99334.13;;;1.19
11926;BMP180;6022;48.768;18.608;2023-03-01T04:33:54;99334.91;;;1.24
11926;BMP180;6022;48.768;18.608;2023-03-01T04:36:27;99333.22;;;1.26
11926;BMP180;6022;48.768;18.608;2023-03-01T04:38:56;99334.84;;;1.27
11926;BMP180;6022;48.768;18.608;2023-03-01T04:41:25;99336.53;;;1.25
11926;BMP180;6022;48.768;18.608;2023-03-01T04:43:55;99336.63;;;1.19
11926;BMP180;6022;48.768;18.608;2023-03-01T04:46:27;99325.78;;;1.20
11926;BMP180;6022;48.768;18.608;2023-03-01T04:48:55;99329.94;;;1.19
11926;BMP180;6022;48.768;18.608;2023-03-01T04:51:22;99328.34;;;1.14
11926;BMP180;6022;48.768;18.608;2023-03-01T04:53:52;99338.34;;;1.14
11926;BMP180;6022;48.768;18.608;2023-03-01T04:56:34;99333.34;;;1.14
11926;BMP180;6022;48.768;18.608;2023-03-01T04:59:01;99338.41;;;1.11
11926;BMP180;6022;48.768;18.608;2023-03-01T05:01:33;99326.78;;;1.07
11926;BMP180;6022;48.768;18.608;2023-03-01T05:04:00;99334.31;;;1.04
11926;BMP180;6022;48.768;18.608;2023-03-01T05:06:32;99329.41;;;0.95
11926;BMP180;6022;48.768;18.608;2023-03-01T05:09:00;99331.91;;;0.95
11926;BMP180;6022;48.768;18.608;2023-03-01T05:11:28;99333.56;;;0.96
11926;BMP180;6022;48.768;18.608;2023-03-01T05:14:00;99333.53;;;0.99
11926;BMP180;6022;48.768;18.608;2023-03-01T05:16:28;99331.09;;;0.95
11926;BMP180;6022;48.768;18.608;2023-03-01T05:18:56;99325.38;;;0.85
11926;BMP180;6022;48.768;18.608;2023-03-01T05:21:24;99320.41;;;0.82
11926;BMP180;6022;48.768;18.608;2023-03-01T05:23:52;99323.72;;;0.84
11926;BMP180;6022;48.768;18.608;2023-03-01T05:26:20;99332.03;;;0.86
11926;BMP180;6022;48.768;18.608;2023-03-01T05:29:06;99328.75;;;0.81
11926;BMP180;6022;48.768;18.608;2023-03-01T05:31:36;99337.91;;;0.81
11926;BMP180;6022;48.768;18.608;2023-03-01T05:34:06;99328.75;;;0.78
11926;BMP180;6022;48.768;18.608;2023-03-01T05:36:33;99324.69;;;0.73
11926;BMP180;6022;48.768;18.608;2023-03-01T05:39:01;99329.63;;;0.74
11926;BMP180;6022;48.768;18.608;2023-03-01T05:41:29;99330.56;;;0.68
11926;BMP180;6022;48.768;18.608;2023-03-01T05:43:56;99323.91;;;0.67
11926;BMP180;6022;48.768;18.608;2023-03-01T05:46:23;99327.19;;;0.72
11926;BMP180;6022;48.768;18.608;2023-03-01T05:48:51;99328.00;;;0.74
11926;BMP180;6022;48.768;18.608;2023-03-01T05:51:19;99328.84;;;0.73
11926;BMP180;6022;48.768;18.608;2023-03-01T05:53:46;99328.00;;;0.74
11926;BMP180;6022;48.768;18.608;2023-03-01T05:56:14;99334.63;;;0.74
11926;BMP180;6022;48.768;18.608;2023-03-01T05:58:41;99331.31;;;0.77
11926;BMP180;6022;48.768;18.608;2023-03-01T06:01:12;99326.25;;;0.81
11926;BMP180;6022;48.768;18.608;2023-03-01T06:03:40;99337.78;;;0.90
11926;BMP180;6022;48.768;18.608;2023-03-01T06:06:08;99332.78;;;0.93
11926;BMP180;6022;48.768;18.608;2023-03-01T06:08:35;99335.22;;;0.97
11926;BMP180;6022;48.768;18.608;2023-03-01T06:11:03;99338.41;;;1.11
11926;BMP180;6022;48.768;18.608;2023-03-01T06:13:30;99346.72;;;1.12
11926;BMP180;6022;48.768;18.608;2023-03-01T06:16:07;99334.22;;;1.10
11926;BMP180;6022;48.768;18.608;2023-03-01T06:18:35;99346.63;;;1.19
11926;BMP180;6022;48.768;18.608;2023-03-01T06:21:06;99333.94;;;1.34
11926;BMP180;6022;48.768;18.608;2023-03-01T06:23:35;99343.63;;;1.56
11926;BMP180;6022;48.768;18.608;2023-03-01T06:26:07;99332.66;;;1.67
11926;BMP180;6022;48.768;18.608;2023-03-01T06:28:36;99338.22;;;1.86
11926;BMP180;6022;48.768;18.608;2023-03-01T06:31:03;99329.69;;;1.97
11926;BMP180;6022;48.768;18.608;2023-03-01T06:33:31;99332.88;;;2.08
11926;BMP180;6022;48.768;18.608;2023-03-01T06:35:58;99327.47;;;2.30
11926;BMP180;6022;48.768;18.608;2023-03-01T06:38:28;99327.56;;;2.25
11926;BMP180;6022;48.768;18.608;2023-03-01T06:40:56;99318.31;;;2.30
11926;BMP180;6022;48.768;18.608;2023-03-01T06:43:24;99313.13;;;2.39
11926;BMP180;6022;48.768;18.608;2023-03-01T06:45:52;99316.22;;;2.53
11926;BMP180;6022;48.768;18.608;2023-03-01T06:48:20;99325.00;;;2.28
11926;BMP180;6022;48.768;18.608;2023-03-01T06:50:48;99325.16;;;2.20
11926;BMP180;6022;48.768;18.608;2023-03-01T06:53:16;99330.88;;;2.26
11926;BMP180;6022;48.768;18.608;2023-03-01T06:55:43;99328.34;;;2.27
11926;BMP180;6022;48.768;18.608;2023-03-01T06:58:11;99320.81;;;2.30
11926;BMP180;6022;48.768;18.608;2023-03-01T07:00:38;99327.59;;;2.23
11926;BMP180;6022;48.768;18.608;2023-03-01T07:03:08;99327.53;;;2.27
11926;BMP180;6022;48.768;18.608;2023-03-01T07:05:36;99318.88;;;2.46
11926;BMP180;6022;48.768;18.608;2023-03-01T07:08:03;99308.75;;;2.50
11926;BMP180;6022;48.768;18.608;2023-03-01T07:10:31;99315.50;;;2.47
11926;BMP180;6022;48.768;18.608;2023-03-01T07:12:58;99318.03;;;2.45
11926;BMP180;6022;48.768;18.608;2023-03-01T07:15:27;99314.00;;;2.37
11926;BMP180;6022;48.768;18.608;2023-03-01T07:17:56;99303.84;;;2.44
11926;BMP180;6022;48.768;18.608;2023-03-01T07:20:28;99305.59;;;2.39
11926;BMP180;6022;48.768;18.608;2023-03-01T07:22:58;99305.72;;;2.33
11926;BMP180;6022;48.768;18.608;2023-03-01T07:25:26;99306.59;;;2.31
11926;BMP180;6022;48.768;18.608;2023-03-01T07:28:01;99305.59;;;2.39
11926;BMP180;6022;48.768;18.608;2023-03-01T07:30:28;99303.03;;;2.45
11926;BMP180;6022;48.768;18.608;2023-03-01T07:32:57;99307.78;;;2.59
11926;BMP180;6022;48.768;18.608;2023-03-01T07:35:28;99299.50;;;2.55
11926;BMP180;6022;48.768;18.608;2023-03-01T07:37:56;99305.19;;;2.63
11926;BMP180;6022;48.768;18.608;2023-03-01T07:40:26;99299.38;;;2.61
11926;BMP180;6022;48.768;18.608;2023-03-01T07:42:57;99297.50;;;2.72
11926;BMP180;6022;48.768;18.608;2023-03-01T07:45:25;99294.13;;;2.73
11926;BMP180;6022;48.768;18.608;2023-03-01T07:47:53;99286.31;;;2.88
11926;BMP180;6022;48.768;18.608;2023-03-01T07:50:24;99292.63;;;3.06
11926;BMP180;6022;48.768;18.608;2023-03-01T07:52:51;99283.63;;;3.37
11926;BMP180;6022;48.768;18.608;2023-03-01T07:55:19;99276.47;;;3.57
11926;BMP180;6022;48.768;18.608;2023-03-01T07:57:47;99274.88;;;3.89
11926;BMP180;6022;48.768;18.608;2023-03-01T08:00:15;99272.75;;;4.07
11926;BMP180;6022;48.768;18.608;2023-03-01T08:02:42;99278.91;;;4.29
11926;BMP180;6022;48.768;18.608;2023-03-01T08:05:10;99273.59;;;4.41
11926;BMP180;6022;48.768;18.608;2023-03-01T08:07:37;99275.16;;;4.45
11926;BMP180;6022;48.768;18.608;2023-03-01T08:10:05;99282.69;;;4.45
11926;BMP180;6022;48.768;18.608;2023-03-01T08:12:33;99281.38;;;4.30
11926;BMP180;6022;48.768;18.608;2023-03-01T08:15:00;99291.94;;;4.43
11926;BMP180;6022;48.768;18.608;2023-03-01T08:17:28;99294.50;;;4.41
11926;BMP180;6022;48.768;18.608;2023-03-01T08:19:55;99284.06;;;4.23
11926;BMP180;6022;48.768;18.608;2023-03-01T08:22:23;99297.13;;;4.37
11926;BMP180;6022;48.768;18.608;2023-03-01T08:24:50;99284.97;;;4.20
11926;BMP180;6022;48.768;18.608;2023-03-01T08:27:18;99286.66;;;4.21
11926;BMP180;6022;48.768;18.608;2023-03-01T08:29:45;99281.25;;;4.36
11926;BMP180;6022;48.768;18.608;2023-03-01T08:32:13;99280.22;;;4.42
11926;BMP180;6022;48.768;18.608;2023-03-01T08:34:40;99276.47;;;4.57
11926;BMP180;6022;48.768;18.608;2023-03-01T08:37:11;99295.28;;;4.75
11926;BMP180;6022;48.768;18.608;2023-03-01T08:39:38;99288.50;;;4.47
11926;BMP180;6022;48.768;18.608;2023-03-01T08:42:06;99291.09;;;4.44
11926;BMP180;6022;48.768;18.608;2023-03-01T08:44:36;99292.16;;;4.65
11926;BMP180;6022;48.768;18.608;2023-03-01T08:47:03;99287.31;;;4.89
11926;BMP180;6022;48.768;18.608;2023-03-01T08:49:33;99286.53;;;4.88
11926;BMP180;6022;48.768;18.608;2023-03-01T08:52:04;99285.56;;;4.93
11926;BMP180;6022;48.768;18.608;2023-03-01T08:54:31;99291.66;;;5.15
11926;BMP180;6022;48.768;18.608;2023-03-01T08:57:04;99281.41;;;5.21
11926;BMP180;6022;48.768;18.608;2023-03-01T08:59:32;99289.81;;;5.20
11926;BMP180;6022;48.768;18.608;2023-03-01T09:02:08;99285.59;;;5.20
11926;BMP180;6022;48.768;18.608;2023-03-01T09:04:38;99282.97;;;5.25
11926;BMP180;6022;48.768;18.608;2023-03-01T09:07:06;99296.06;;;5.35
11926;BMP180;6022;48.768;18.608;2023-03-01T09:09:34;99287.06;;;5.27
11926;BMP180;6022;48.768;18.608;2023-03-01T09:12:03;99285.63;;;5.47
11926;BMP180;6022;48.768;18.608;2023-03-01T09:14:30;99280.31;;;5.56
11926;BMP180;6022;48.768;18.608;2023-03-01T09:16:58;99282.50;;;5.66
11926;BMP180;6022;48.768;18.608;2023-03-01T09:19:25;99285.75;;;5.70
11926;BMP180;6022;48.768;18.608;2023-03-01T09:21:53;99280.72;;;5.70
11926;BMP180;6022;48.768;18.608;2023-03-01T09:24:23;99276.47;;;5.72
11926;BMP180;6022;48.768;18.608;2023-03-01T09:26:54;99273.75;;;5.79
11926;BMP180;6022;48.768;18.608;2023-03-01T09:29:23;99268.44;;;5.88
11926;BMP180;6022;48.768;18.608;2023-03-01T09:31:51;99268.38;;;5.90
11926;BMP180;6022;48.768;18.608;2023-03-01T09:34:23;99266.25;;;6.03
11926;BMP180;6022;48.768;18.608;2023-03-01T09:36:53;99266.84;;;6.10
11926;BMP180;6022;48.768;18.608;2023-03-01T09:39:20;99261.91;;;6.08
11926;BMP180;6022;48.768;18.608;2023-03-01T09:42:03;99261.69;;;6.14
11926;BMP180;6022;48.768;18.608;2023-03-01T09:44:40;99257.69;;;6.33
11926;BMP180;6022;48.768;18.608;2023-03-01T09:47:20;99262.31;;;6.45
11926;BMP180;6022;48.768;18.608;2023-03-01T09:50:18;99258.28;;;6.64
11926;BMP180;6022;48.768;18.608;2023-03-01T09:53:18;99253.63;;;6.29
11926;BMP180;6022;48.768;18.608;2023-03-01T10:04:32;99235.59;;;6.64
11926;BMP180;6022;48.768;18.608;2023-03-01T10:09:44;99238.78;;;6.91
11926;BMP180;6022;48.768;18.608;2023-03-01T10:12:25;99226.69;;;7.22
11926;BMP180;6022;48.768;18.608;2023-03-01T10:17:51;99212.88;;;8.91
11926;BMP180;6022;48.768;18.608;2023-03-01T10:20:42;99207.53;;;9.15
11926;BMP180;6022;48.768;18.608;2023-03-01T10:23:10;99203.53;;;9.63
11926;BMP180;6022;48.768;18.608;2023-03-01T10:25:59;99202.00;;;9.78
11926;BMP180;6022;48.768;18.608;2023-03-01T10:31:22;99200.38;;;9.93
11926;BMP180;6022;48.768;18.608;2023-03-01T10:33:56;99203.38;;;10.18
11926;BMP180;6022;48.768;18.608;2023-03-01T10:36:26;99193.38;;;10.32
11926;BMP180;6022;48.768;18.608;2023-03-01T10:38:56;99180.56;;;10.82
11926;BMP180;6022;48.768;18.608;2023-03-01T10:41:27;99175.00;;;11.22
11926;BMP180;6022;48.768;18.608;2023-03-01T10:43:57;99171.66;;;10.58
11926;BMP180;6022;48.768;18.608;2023-03-01T10:46:37;99165.94;;;10.70
11926;BMP180;6022;48.768;18.608;2023-03-01T10:49:22;99167.28;;;11.08
11926;BMP180;6022;48.768;18.608;2023-03-01T10:51:52;99157.13;;;11.38
11926;BMP180;6022;48.768;18.608;2023-03-01T10:54:32;99161.00;;;12.04
11926;BMP180;6022;48.768;18.608;2023-03-01T10:57:03;99153.50;;;11.42
11926;BMP180;6022;48.768;18.608;2023-03-01T10:59:33;99144.94;;;11.74
11926;BMP180;6022;48.768;18.608;2023-03-01T11:02:28;99147.94;;;12.09
11926;BMP180;6022;48.768;18.608;2023-03-01T11:05:17;99147.41;;;11.75
11926;BMP180;6022;48.768;18.608;2023-03-01T11:07:58;99130.13;;;11.67
11926;BMP180;6022;48.768;18.608;2023-03-01T11:10:35;99123.97;;;11.70
11926;BMP180;6022;48.768;18.608;2023-03-01T11:13:14;99124.38;;;11.49
11926;BMP180;6022;48.768;18.608;2023-03-01T11:16:04;99118.75;;;11.58
11926;BMP180;6022;48.768;18.608;2023-03-01T11:18:35;99119.75;;;11.69
11926;BMP180;6022;48.768;18.608;2023-03-01T11:21:16;99106.09;;;11.72
11926;BMP180;6022;48.768;18.608;2023-03-01T11:23:46;99102.44;;;12.19
11926;BMP180;6022;48.768;18.608;2023-03-01T11:26:16;99086.75;;;12.66
11926;BMP180;6022;48.768;18.608;2023-03-01T11:28:50;99083.47;;;12.92
11926;BMP180;6022;48.768;18.608;2023-03-01T11:31:41;99081.44;;;12.43
11926;BMP180;6022;48.768;18.608;2023-03-01T11:34:53;99085.81;;;12.41
11926;BMP180;6022;48.768;18.608;2023-03-01T11:37:38;99069.28;;;12.20
11926;BMP180;6022;48.768;18.608;2023-03-01T11:40:23;99067.97;;;12.27
11926;BMP180;6022;48.768;18.608;2023-03-01T11:48:52;99061.25;;;13.32
11926;BMP180;6022;48.768;18.608;2023-03-01T11:52:01;99057.97;;;13.18
11926;BMP180;6022;48.768;18.608;2023-03-01T12:00:53;99031.56;;;13.58
11926;BMP180;6022;48.768;18.608;2023-03-01T12:05:02;99031.25;;;14.36
11926;BMP180;6022;48.768;18.608;2023-03-01T12:10:36;99035.03;;;14.89
11926;BMP180;6022;48.768;18.608;2023-03-01T12:26:56;98993.13;;;14.45
11926;BMP180;6022;48.768;18.608;2023-03-01T12:32:34;98989.50;;;14.25
11926;BMP180;6022;48.768;18.608;2023-03-01T12:38:40;98988.91;;;14.09
11926;BMP180;6022;48.768;18.608;2023-03-01T12:41:38;98988.09;;;14.21
11926;BMP180;6022;48.768;18.608;2023-03-01T12:44:42;98995.50;;;14.59
11926;BMP180;6022;48.768;18.608;2023-03-01T12:50:27;98995.03;;;15.24
11926;BMP180;6022;48.768;18.608;2023-03-01T12:52:58;98986.19;;;14.94
11926;BMP180;6022;48.768;18.608;2023-03-01T12:55:38;98989.47;;;15.30
11926;BMP180;6022;48.768;18.608;2023-03-01T12:58:59;98973.09;;;15.32
11926;BMP180;6022;48.768;18.608;2023-03-01T13:02:15;98973.53;;;15.26
11926;BMP180;6022;48.768;18.608;2023-03-01T13:05:17;98967.81;;;15.23
11926;BMP180;6022;48.768;18.608;2023-03-01T13:13:22;98963.28;;;15.15
11926;BMP180;6022;48.768;18.608;2023-03-01T13:15:51;98966.69;;;15.04
11926;BMP180;6022;48.768;18.608;2023-03-01T13:20:50;98945.53;;;15.25
11926;BMP180;6022;48.768;18.608;2023-03-01T13:26:23;98950.97;;;14.86
11926;BMP180;6022;48.768;18.608;2023-03-01T13:28:56;98947.44;;;15.11
11926;BMP180;6022;48.768;18.608;2023-03-01T13:33:56;98942.41;;;14.98
11926;BMP180;6022;48.768;18.608;2023-03-01T13:39:31;98943.78;;;15.14
11926;BMP180;6022;48.768;18.608;2023-03-01T13:45:35;98957.66;;;15.11
11926;BMP180;6022;48.768;18.608;2023-03-01T13:48:23;98951.34;;;15.16
11926;BMP180;6022;48.768;18.608;2023-03-01T13:51:04;98942.03;;;14.92
11926;BMP180;6022;48.768;18.608;2023-03-01T13:53:39;98957.38;;;14.92
11926;BMP180;6022;48.768;18.608;2023-03-01T13:56:44;98951.97;;;14.73
11926;BMP180;6022;48.768;18.608;2023-03-01T13:59:49;98940.69;;;14.75
11926;BMP180;6022;48.768;18.608;2023-03-01T14:02:16;98937.88;;;14.68
11926;BMP180;6022;48.768;18.608;2023-03-01T14:04:56;98933.69;;;14.43
11926;BMP180;6022;48.768;18.608;2023-03-01T14:07:26;98929.22;;;14.58
11926;BMP180;6022;48.768;18.608;2023-03-01T14:10:12;98928.53;;;14.33
11926;BMP180;6022;48.768;18.608;2023-03-01T14:13:25;98932.59;;;14.12
11926;BMP180;6022;48.768;18.608;2023-03-01T14:16:17;98931.78;;;13.87
11926;BMP180;6022;48.768;18.608;2023-03-01T14:19:13;98925.97;;;13.85
11926;BMP180;6022;48.768;18.608;2023-03-01T14:22:27;98926.16;;;13.94
11926;BMP180;6022;48.768;18.608;2023-03-01T14:30:50;98922.53;;;13.49
11926;BMP180;6022;48.768;18.608;2023-03-01T14:33:31;98930.78;;;13.40
11926;BMP180;6022;48.768;18.608;2023-03-01T14:36:07;98927.13;;;13.44
11926;BMP180;6022;48.768;18.608;2023-03-01T14:38:45;98922.03;;;13.44
11926;BMP180;6022;48.768;18.608;2023-03-01T14:41:19;98923.47;;;13.35
11926;BMP180;6022;48.768;18.608;2023-03-01T14:44:06;98922.66;;;13.35
11926;BMP180;6022;48.768;18.608;2023-03-01T14:46:41;98930.19;;;13.24
11926;BMP180;6022;48.768;18.608;2023-03-01T14:49:19;98932.22;;;13.31
11926;BMP180;6022;48.768;18.608;2023-03-01T14:52:02;98923.66;;;13.20
11926;BMP180;6022;48.768;18.608;2023-03-01T14:54:42;98927.94;;;13.07
11926;BMP180;6022;48.768;18.608;2023-03-01T14:57:23;98922.22;;;13.04
11926;BMP180;6022;48.768;18.608;2023-03-01T14:59:55;98929.09;;;12.89
11926;BMP180;6022;48.768;18.608;2023-03-01T15:02:29;98915.56;;;12.89
11926;BMP180;6022;48.768;18.608;2023-03-01T15:05:08;98910.06;;;12.83
11926;BMP180;6022;48.768;18.608;2023-03-01T15:07:42;98914.84;;;12.87
11926;BMP180;6022;48.768;18.608;2023-03-01T15:10:25;98912.81;;;12.80
11926;BMP180;6022;48.768;18.608;2023-03-01T15:13:14;98913.34;;;12.71
11926;BMP180;6022;48.768;18.608;2023-03-01T15:15:50;98902.38;;;12.44
11926;BMP180;6022;48.768;18.608;2023-03-01T15:18:25;98916.22;;;12.40
11926;BMP180;6022;48.768;18.608;2023-03-01T15:20:54;98920.28;;;12.43
11926;BMP180;6022;48.768;18.608;2023-03-01T15:23:29;98927.88;;;12.30
11926;BMP180;6022;48.768;18.608;2023-03-01T15:25:58;98909.91;;;12.19
11926;BMP180;6022;48.768;18.608;2023-03-01T15:28:29;98918.75;;;12.14
11926;BMP180;6022;48.768;18.608;2023-03-01T15:31:23;98919.59;;;12.01
11926;BMP180;6022;48.768;18.608;2023-03-01T15:33:52;98920.97;;;11.92
11926;BMP180;6022;48.768;18.608;2023-03-01T15:39:40;98908.56;;;11.60
11926;BMP180;6022;48.768;18.608;2023-03-01T15:47:50;98925.44;;;11.61
11926;BMP180;6022;48.768;18.608;2023-03-01T15:50:23;98922.53;;;11.53
11926;BMP180;6022;48.768;18.608;2023-03-01T15:52:51;98922.63;;;11.52
11926;BMP180;6022;48.768;18.608;2023-03-01T15:55:26;98928.16;;;11.44
11926;BMP180;6022;48.768;18.608;2023-03-01T15:58:13;98922.31;;;11.42
11926;BMP180;6022;48.768;18.608;2023-03-01T16:00:45;98925.22;;;11.36
11926;BMP180;6022;48.768;18.608;2023-03-01T16:03:27;98924.31;;;11.24
11926;BMP180;6022;48.768;18.608;2023-03-01T16:05:55;98917.28;;;11.13
11926;BMP180;6022;48.768;18.608;2023-03-01T16:08:22;98919.28;;;11.08
11926;BMP180;6022;48.768;18.608;2023-03-01T16:10:50;98914.75;;;10.99
11926;BMP180;6022;48.768;18.608;2023-03-01T16:13:18;98915.25;;;10.91
11926;BMP180;6022;48.768;18.608;2023-03-01T16:16:01;98920.75;;;10.83
11926;BMP180;6022;48.768;18.608;2023-03-01T16:18:28;98915.03;;;10.80
11926;BMP180;6022;48.768;18.608;2023-03-01T16:20:56;98923.84;;;10.74
11926;BMP180;6022;48.768;18.608;2023-03-01T16:23:23;98916.88;;;10.62
11926;BMP180;6022;48.768;18.608;2023-03-01T16:25:52;98910.84;;;10.50
11926;BMP180;6022;48.768;18.608;2023-03-01T16:28:20;98914.66;;;10.43
11926;BMP180;6022;48.768;18.608;2023-03-01T16:30:51;98911.16;;;10.30
11926;BMP180;6022;48.768;18.608;2023-03-01T16:33:18;98911.16;;;10.30
11926;BMP180;6022;48.768;18.608;2023-03-01T16:36:08;98910.31;;;10.14